Neuchatel, Switzerland
Current Conditions -  °F | °C
As of 1:50 PM on Friday 19 Dec 2014 (Local Time) from LSGC Reporting Station
Broken Clouds Broken Clouds  
Wind Chill: 39°   Ceiling: 20000
Heat Index: 45°   Visibility: 6mi
Dew Point: 45°   Wind: 12mph
Humidity: 100%   Direction: 230°SW
Pressure: 30.21"   Gusts: NA
Location:  47.01°N, 6.92°E
Report Text: LSGC 191250Z 23010KT 200V270 9999 FEW020 BKN200 07/07 Q1023
Loading
Personal Weather Stations






























Interactive Weather Map New forecast layout! Learn more

10-Day Weather Forecast

Advertisements
Track Severe Weather on mobile